createdAt,value
2023-01-17T00:02:21.561Z,2.60
2023-01-17T00:05:06.981Z,3.58
2023-01-17T00:07:52.998Z,1.95
2023-01-17T00:10:24.411Z,2.78
2023-01-17T00:12:58.762Z,3.22
2023-01-17T00:15:29.659Z,6.65
2023-01-17T00:17:57.532Z,3.90
2023-01-17T00:20:48.524Z,4.70
2023-01-17T00:23:41.425Z,5.80
2023-01-17T00:26:26.649Z,4.70
2023-01-17T00:28:53.717Z,8.05
2023-01-17T00:31:20.824Z,6.88
2023-01-17T00:33:47.782Z,9.38
2023-01-17T00:36:14.790Z,10.15
2023-01-17T00:38:41.843Z,10.55
2023-01-17T00:41:12.324Z,8.32
2023-01-17T00:43:58.455Z,10.43
2023-01-17T00:46:44.891Z,7.63
2023-01-17T00:49:30.788Z,6.05
2023-01-17T00:52:16.711Z,0.73
2023-01-17T00:55:02.487Z,0.65
2023-01-17T00:57:48.348Z,1.52
2023-01-17T01:00:37.595Z,1.52
2023-01-17T01:03:30.871Z,0.30
2023-01-17T01:06:16.713Z,1.02
2023-01-17T01:09:02.569Z,0.73
2023-01-17T01:11:48.475Z,1.00
2023-01-17T01:14:34.431Z,0.30
2023-01-17T01:17:20.364Z,0.75
2023-01-17T01:20:06.289Z,0.20
2023-01-17T01:22:52.156Z,1.08
2023-01-17T01:25:38.145Z,0.50
2023-01-17T01:28:32.137Z,0.47
2023-01-17T01:31:20.118Z,2.05
2023-01-17T01:33:47.648Z,0.88
2023-01-17T01:36:15.563Z,2.53
2023-01-17T01:38:42.992Z,2.08
2023-01-17T01:41:10.032Z,1.23
2023-01-17T01:44:26.828Z,1.17
2023-01-17T01:46:54.304Z,1.65
2023-01-17T01:49:28.402Z,3.42
2023-01-17T01:52:05.012Z,2.65
2023-01-17T01:54:44.608Z,1.40
2023-01-17T01:57:17.794Z,2.22
2023-01-17T01:59:56.188Z,2.63
2023-01-17T02:02:23.252Z,2.28
2023-01-17T02:04:51.901Z,1.45
2023-01-17T02:07:31.908Z,1.92
2023-01-17T02:09:59.044Z,1.52
2023-01-17T02:12:26.196Z,1.77
2023-01-17T02:14:53.227Z,1.98
2023-01-17T02:17:23.155Z,2.15
2023-01-17T02:20:09.043Z,1.88
2023-01-17T02:22:56.634Z,1.45
2023-01-17T02:25:54.543Z,2.65
2023-01-17T02:29:12.343Z,6.40
2023-01-17T02:31:55.185Z,6.15
2023-01-17T02:34:32.700Z,3.92
2023-01-17T02:37:09.980Z,4.95
2023-01-17T02:39:58.258Z,5.55
2023-01-17T02:42:34.115Z,6.30
2023-01-17T02:45:03.338Z,4.45
2023-01-17T02:47:32.285Z,5.80
2023-01-17T02:50:15.701Z,3.92
2023-01-17T02:53:19.538Z,4.82
2023-01-17T02:56:10.013Z,4.05
2023-01-17T02:59:07.434Z,3.50
2023-01-17T03:01:59.204Z,4.80
2023-01-17T03:04:45.529Z,5.32
2023-01-17T03:07:22.553Z,6.82
2023-01-17T03:09:59.467Z,7.43
2023-01-17T03:12:30.584Z,9.45
2023-01-17T03:14:58.125Z,6.50
2023-01-17T03:17:32.971Z,8.32
2023-01-17T03:19:59.941Z,8.93
2023-01-17T03:22:26.943Z,6.78
2023-01-17T03:24:54.623Z,7.13
2023-01-17T03:27:21.595Z,7.78
2023-01-17T03:29:48.618Z,8.93
2023-01-17T03:32:15.568Z,9.50
2023-01-17T03:34:42.507Z,6.60
2023-01-17T03:37:09.451Z,6.15
2023-01-17T03:39:36.652Z,9.35
2023-01-17T03:42:03.672Z,7.68
2023-01-17T03:44:30.768Z,7.90
2023-01-17T03:46:57.744Z,7.00
2023-01-17T03:49:24.745Z,8.85
2023-01-17T03:51:51.729Z,8.98
2023-01-17T03:54:18.755Z,10.20
2023-01-17T03:56:45.797Z,7.15
2023-01-17T03:59:13.489Z,9.38
2023-01-17T04:01:40.643Z,7.47
2023-01-17T04:04:07.732Z,6.00
2023-01-17T04:06:34.756Z,8.57
2023-01-17T04:09:01.819Z,7.75
2023-01-17T04:11:28.817Z,8.15
2023-01-17T04:13:55.832Z,8.25
2023-01-17T04:16:31.019Z,5.47
2023-01-17T04:18:58.366Z,7.75
2023-01-17T04:21:25.388Z,5.95
2023-01-17T04:23:52.473Z,8.77
2023-01-17T04:26:19.514Z,4.88
2023-01-17T04:28:46.613Z,4.50
2023-01-17T04:31:17.609Z,4.07
2023-01-17T04:33:44.781Z,5.78
2023-01-17T04:36:11.825Z,5.45
2023-01-17T04:38:38.956Z,5.95
2023-01-17T04:41:05.920Z,4.65
2023-01-17T04:43:33.049Z,4.38
2023-01-17T04:46:00.033Z,5.57
2023-01-17T04:48:27.604Z,4.85
2023-01-17T04:51:02.542Z,5.32
2023-01-17T04:53:29.563Z,6.90
2023-01-17T04:55:57.685Z,4.72
2023-01-17T04:58:24.664Z,7.15
2023-01-17T05:00:51.892Z,3.40
2023-01-17T05:03:22.049Z,5.57
2023-01-17T05:05:49.423Z,6.07
2023-01-17T05:08:16.488Z,6.75
2023-01-17T05:10:47.063Z,7.22
2023-01-17T05:13:14.755Z,3.70
2023-01-17T05:15:41.799Z,5.55
2023-01-17T05:18:14.904Z,2.97
2023-01-17T05:20:42.516Z,13.93
2023-01-17T05:23:09.610Z,11.63
2023-01-17T05:25:36.972Z,10.68
2023-01-17T05:28:04.305Z,7.10
2023-01-17T05:30:33.013Z,7.57
2023-01-17T05:33:00.018Z,8.30
2023-01-17T05:35:32.597Z,9.02
2023-01-17T05:37:59.783Z,9.60
2023-01-17T05:40:30.979Z,11.45
2023-01-17T05:43:00.754Z,10.15
2023-01-17T05:45:30.553Z,9.23
2023-01-17T05:47:58.439Z,6.20
2023-01-17T05:50:34.164Z,6.78
2023-01-17T05:53:08.610Z,8.57
2023-01-17T05:55:36.875Z,9.93
2023-01-17T05:58:05.341Z,8.68
2023-01-17T06:00:32.625Z,13.68
2023-01-17T06:03:01.487Z,9.90
2023-01-17T06:05:30.052Z,13.45
2023-01-17T06:07:57.971Z,17.17
2023-01-17T06:10:26.212Z,15.70
2023-01-17T06:13:08.738Z,16.58
2023-01-17T06:15:38.017Z,13.25
2023-01-17T06:18:12.309Z,14.02
2023-01-17T06:20:40.451Z,14.10
2023-01-17T06:23:11.809Z,14.45
2023-01-17T06:25:44.046Z,17.15
2023-01-17T06:28:14.477Z,14.23
2023-01-17T06:30:43.907Z,16.45
2023-01-17T06:33:12.791Z,15.13
2023-01-17T06:35:41.058Z,21.85
2023-01-17T06:38:09.946Z,18.52
2023-01-17T06:40:37.033Z,20.95
2023-01-17T06:43:05.412Z,20.55
2023-01-17T06:45:35.544Z,21.10
2023-01-17T06:48:05.250Z,20.35
2023-01-17T06:50:34.058Z,21.80
2023-01-17T06:53:05.223Z,22.17
2023-01-17T06:55:35.030Z,27.33
2023-01-17T06:58:03.148Z,24.83
2023-01-17T07:00:40.379Z,32.22
2023-01-17T07:03:27.139Z,27.92
2023-01-17T07:05:54.598Z,29.70
2023-01-17T07:08:21.695Z,33.47
2023-01-17T07:10:49.317Z,35.28
2023-01-17T07:13:16.668Z,31.15
2023-01-17T07:15:43.772Z,32.65
2023-01-17T07:18:10.805Z,31.38
2023-01-17T07:20:38.506Z,32.35
2023-01-17T07:23:06.695Z,35.30
2023-01-17T07:25:33.840Z,33.42
2023-01-17T07:28:00.824Z,29.88
2023-01-17T07:30:27.946Z,34.83
2023-01-17T07:32:55.770Z,27.00
2023-01-17T07:35:27.980Z,31.23
2023-01-17T07:37:55.359Z,35.50
2023-01-17T07:40:23.078Z,35.03
2023-01-17T07:42:50.160Z,32.70
2023-01-17T07:45:17.992Z,31.08
2023-01-17T07:47:45.133Z,33.90
2023-01-17T07:50:13.653Z,37.92
2023-01-17T07:52:41.352Z,35.60
2023-01-17T07:55:09.941Z,32.75
2023-01-17T07:57:36.968Z,37.05
2023-01-17T08:00:05.339Z,29.60
2023-01-17T08:02:39.411Z,36.20
2023-01-17T08:05:06.738Z,33.38
2023-01-17T08:07:34.270Z,30.83
2023-01-17T08:10:01.598Z,33.03
2023-01-17T08:12:29.610Z,34.90
2023-01-17T08:14:56.661Z,38.60
2023-01-17T08:17:23.686Z,33.95
2023-01-17T08:19:52.165Z,31.40
2023-01-17T08:22:19.948Z,39.40
2023-01-17T08:24:47.539Z,41.35
2023-01-17T08:27:15.211Z,30.63
2023-01-17T08:29:47.110Z,32.60
2023-01-17T08:32:15.735Z,34.70
2023-01-17T08:34:42.687Z,33.83
2023-01-17T08:37:09.656Z,30.20
2023-01-17T08:39:36.605Z,29.98
2023-01-17T08:42:03.827Z,32.85
2023-01-17T08:44:30.876Z,30.63
2023-01-17T08:46:58.304Z,30.27
2023-01-17T08:49:25.827Z,30.55
2023-01-17T08:51:52.880Z,31.67
2023-01-17T08:54:19.991Z,25.33
2023-01-17T08:56:47.489Z,26.00
2023-01-17T08:59:14.729Z,25.00
2023-01-17T09:01:42.086Z,23.50
2023-01-17T09:04:09.667Z,25.88
2023-01-17T09:06:45.515Z,23.75
2023-01-17T09:09:13.692Z,28.30
2023-01-17T09:11:40.742Z,27.15
2023-01-17T09:14:07.861Z,25.70
2023-01-17T09:16:35.065Z,26.67
2023-01-17T09:19:02.172Z,27.77
2023-01-17T09:21:29.185Z,23.55
2023-01-17T09:23:56.335Z,24.00
2023-01-17T09:26:28.471Z,96.93
2023-01-17T09:28:56.160Z,28.98
2023-01-17T09:31:24.170Z,25.90
2023-01-17T09:33:54.106Z,27.90
2023-01-17T09:36:22.259Z,25.40
2023-01-17T09:38:49.578Z,27.40
2023-01-17T09:41:47.057Z,20.67
2023-01-17T09:44:38.816Z,27.45
2023-01-17T09:47:37.096Z,25.90
2023-01-17T09:50:36.410Z,26.33
2023-01-17T09:53:11.872Z,28.50
2023-01-17T09:56:03.648Z,25.00
2023-01-17T09:59:08.574Z,22.13
2023-01-17T10:02:04.233Z,25.33
2023-01-17T10:04:48.993Z,22.70
2023-01-17T10:07:29.633Z,22.92
2023-01-17T10:10:28.053Z,21.95
2023-01-17T10:13:24.187Z,26.45
2023-01-17T10:16:00.152Z,94.57
2023-01-17T10:18:56.502Z,28.55
2023-01-17T10:22:21.025Z,21.85
2023-01-17T10:25:28.323Z,23.27
2023-01-17T10:28:09.901Z,22.33
2023-01-17T10:30:46.075Z,17.30
2023-01-17T10:33:18.650Z,18.70
2023-01-17T10:36:10.138Z,19.13
2023-01-17T10:38:41.710Z,21.55
2023-01-17T10:41:24.176Z,21.83
2023-01-17T10:44:25.127Z,24.88
2023-01-17T10:47:20.554Z,19.45
2023-01-17T10:50:01.907Z,16.85
2023-01-17T10:52:58.956Z,24.58
2023-01-17T10:55:48.394Z,20.27
2023-01-17T10:58:15.479Z,16.77
2023-01-17T11:01:18.982Z,20.05
2023-01-17T11:03:55.058Z,17.77
2023-01-17T11:06:27.821Z,16.85
2023-01-17T11:09:10.702Z,16.02
2023-01-17T11:11:48.659Z,17.02
2023-01-17T11:14:26.128Z,18.77
2023-01-17T11:17:07.083Z,15.15
2023-01-17T11:19:36.410Z,16.38
2023-01-17T11:22:07.324Z,13.65
2023-01-17T11:24:47.186Z,15.88
2023-01-17T11:27:58.379Z,13.10
2023-01-17T11:30:29.345Z,13.55
2023-01-17T11:33:07.121Z,13.73
2023-01-17T11:35:37.566Z,14.60
2023-01-17T11:38:16.429Z,25.35
2023-01-17T11:40:46.669Z,14.43
2023-01-17T11:43:30.460Z,13.82
2023-01-17T11:46:14.633Z,14.82
2023-01-17T11:48:41.622Z,15.02
2023-01-17T11:51:22.693Z,12.25
2023-01-17T11:53:50.327Z,23.30
2023-01-17T11:56:19.506Z,25.40
2023-01-17T11:58:47.305Z,8.32
2023-01-17T12:01:37.149Z,37.80
2023-01-17T12:04:45.115Z,12.25
2023-01-17T12:07:37.977Z,9.73
2023-01-17T12:10:44.726Z,7.93
2023-01-17T12:13:57.819Z,8.18
2023-01-17T12:16:50.544Z,8.77
2023-01-17T12:19:37.989Z,8.52
2023-01-17T12:22:42.125Z,11.80
2023-01-17T12:25:39.556Z,8.75
2023-01-17T12:28:37.145Z,7.40
2023-01-17T12:31:29.763Z,8.38
2023-01-17T12:34:02.636Z,7.65
2023-01-17T12:36:42.575Z,10.93
2023-01-17T12:39:14.141Z,7.63
2023-01-17T12:42:04.343Z,9.20
2023-01-17T12:44:58.415Z,9.50
2023-01-17T12:47:26.091Z,8.32
2023-01-17T12:50:30.768Z,7.47
2023-01-17T12:53:21.960Z,8.30
2023-01-17T12:55:58.644Z,6.60
2023-01-17T12:58:34.863Z,8.65
2023-01-17T13:01:19.869Z,9.88
2023-01-17T13:04:30.516Z,8.45
2023-01-17T13:07:10.720Z,7.47
2023-01-17T13:09:59.012Z,10.65
2023-01-17T13:12:34.508Z,7.05
2023-01-17T13:15:03.908Z,6.65
2023-01-17T13:17:46.356Z,6.75
2023-01-17T13:20:31.817Z,6.80
2023-01-17T13:23:16.763Z,5.68
2023-01-17T13:28:45.531Z,6.85
2023-01-17T13:34:14.077Z,6.13
2023-01-17T13:37:20.152Z,5.45
2023-01-17T13:40:29.728Z,9.38
2023-01-17T13:43:03.754Z,7.70
2023-01-17T13:45:35.718Z,5.88
2023-01-17T13:48:18.700Z,7.82
2023-01-17T13:50:58.382Z,6.53
2023-01-17T13:53:34.574Z,4.82
2023-01-17T13:56:12.873Z,5.85
2023-01-17T13:58:54.370Z,4.35
2023-01-17T14:01:24.584Z,6.65
2023-01-17T14:03:51.968Z,5.22
2023-01-17T14:06:48.020Z,7.32
2023-01-17T14:09:40.936Z,4.72
2023-01-17T14:12:10.810Z,10.55
2023-01-17T14:14:40.867Z,5.30
2023-01-17T14:17:23.605Z,5.90
2023-01-17T14:19:55.024Z,6.13
2023-01-17T14:22:26.184Z,4.82
2023-01-17T14:25:18.063Z,4.97
2023-01-17T14:27:58.462Z,5.53
2023-01-17T14:30:36.553Z,4.50
2023-01-17T14:33:08.587Z,6.13
2023-01-17T14:35:51.240Z,5.28
2023-01-17T14:38:34.100Z,2.78
2023-01-17T14:41:13.101Z,3.95
2023-01-17T14:43:43.515Z,5.07
2023-01-17T14:46:23.880Z,4.47
2023-01-17T14:49:00.157Z,5.47
2023-01-17T14:51:28.278Z,7.75
2023-01-17T14:53:59.311Z,8.80
2023-01-17T14:56:29.495Z,7.80
2023-01-17T14:59:17.253Z,5.63
2023-01-17T15:02:06.231Z,6.07
2023-01-17T15:04:39.311Z,3.47
2023-01-17T15:07:14.820Z,10.57
2023-01-17T15:09:44.609Z,4.35
2023-01-17T15:12:16.417Z,3.25
2023-01-17T15:14:46.793Z,10.68
2023-01-17T15:17:26.448Z,7.82
2023-01-17T15:20:08.309Z,4.78
2023-01-17T15:22:35.872Z,6.68
2023-01-17T15:25:03.687Z,5.95
2023-01-17T15:27:32.238Z,8.23
2023-01-17T15:30:02.292Z,4.07
2023-01-17T15:32:32.587Z,6.20
2023-01-17T15:35:02.742Z,5.90
2023-01-17T15:37:32.758Z,6.07
2023-01-17T15:40:20.644Z,5.25
2023-01-17T15:42:56.709Z,6.38
2023-01-17T15:45:29.927Z,7.00
2023-01-17T15:47:59.266Z,7.95
2023-01-17T15:50:38.538Z,6.85
2023-01-17T15:53:29.673Z,5.75
2023-01-17T15:55:57.793Z,4.28
2023-01-17T15:58:30.292Z,6.25
2023-01-17T16:00:57.779Z,7.03
2023-01-17T16:03:30.616Z,9.50
2023-01-17T16:06:02.853Z,7.63
2023-01-17T16:08:34.701Z,11.68
2023-01-17T16:11:06.339Z,8.05
2023-01-17T16:13:38.696Z,43.38
2023-01-17T16:16:21.912Z,26.27
2023-01-17T16:18:58.924Z,9.10
2023-01-17T16:21:31.454Z,52.88
2023-01-17T16:24:00.444Z,14.15
2023-01-17T16:26:29.273Z,8.70
2023-01-17T16:28:56.856Z,6.45
2023-01-17T16:31:24.081Z,8.82
2023-01-17T16:33:51.486Z,10.32
2023-01-17T16:36:20.865Z,7.85
2023-01-17T16:38:51.642Z,8.82
2023-01-17T16:41:20.148Z,9.15
2023-01-17T16:44:00.635Z,7.53
2023-01-17T16:46:29.706Z,5.35
2023-01-17T16:48:59.844Z,6.38
2023-01-17T16:51:27.075Z,8.15
2023-01-17T16:53:54.116Z,11.10
2023-01-17T16:56:21.218Z,10.10
2023-01-17T16:58:48.531Z,9.25
2023-01-17T17:01:20.758Z,12.57
2023-01-17T17:03:48.132Z,9.70
2023-01-17T17:06:15.183Z,10.55
2023-01-17T17:08:43.228Z,10.48
2023-01-17T17:11:20.826Z,10.68
2023-01-17T17:13:50.303Z,8.05
2023-01-17T17:16:30.216Z,10.85
2023-01-17T17:19:01.480Z,11.80
2023-01-17T17:21:31.714Z,10.10
2023-01-17T17:24:01.285Z,8.95
2023-01-17T17:26:36.346Z,10.20
2023-01-17T17:29:06.292Z,11.68
2023-01-17T17:31:33.722Z,10.18
2023-01-17T17:34:03.288Z,13.20
2023-01-17T17:36:31.212Z,10.48
2023-01-17T17:38:59.129Z,12.75
2023-01-17T17:41:33.639Z,9.35
2023-01-17T17:46:34.976Z,10.95
2023-01-17T17:49:02.651Z,10.95
2023-01-17T17:51:38.860Z,12.13
2023-01-17T17:54:10.496Z,10.45
2023-01-17T17:56:39.339Z,9.15
2023-01-17T17:59:09.308Z,12.02
2023-01-17T18:01:40.920Z,9.50
2023-01-17T18:04:09.125Z,11.10
2023-01-17T18:06:36.784Z,12.45
2023-01-17T18:09:10.502Z,16.65
2023-01-17T18:11:40.816Z,9.20
2023-01-17T18:14:12.497Z,10.13
2023-01-17T18:16:47.032Z,11.38
2023-01-17T18:21:45.669Z,14.40
2023-01-17T18:24:19.504Z,13.50
2023-01-17T18:26:57.685Z,11.88
2023-01-17T18:29:27.101Z,8.85
2023-01-17T18:31:55.732Z,10.77
2023-01-17T18:34:29.071Z,10.15
2023-01-17T18:36:57.541Z,12.57
2023-01-17T18:39:28.360Z,11.82
2023-01-17T18:41:56.259Z,13.43
2023-01-17T18:44:27.395Z,13.15
2023-01-17T18:46:55.153Z,15.05
2023-01-17T18:49:24.555Z,11.38
2023-01-17T18:51:51.880Z,11.55
2023-01-17T18:54:20.350Z,11.60
2023-01-17T18:56:47.921Z,11.52
2023-01-17T18:59:18.442Z,13.15
2023-01-17T19:01:46.252Z,12.38
2023-01-17T19:04:16.009Z,10.68
2023-01-17T19:06:48.261Z,17.85
2023-01-17T19:09:17.326Z,14.05
2023-01-17T19:11:51.334Z,17.52
2023-01-17T19:14:23.743Z,18.13
2023-01-17T19:16:54.285Z,20.48
2023-01-17T19:19:21.358Z,27.42
2023-01-17T19:21:52.038Z,27.25
2023-01-17T19:24:19.147Z,31.02
2023-01-17T19:26:52.831Z,27.80
2023-01-17T19:29:20.005Z,24.65
2023-01-17T19:31:49.234Z,22.88
2023-01-17T19:34:19.852Z,23.40
2023-01-17T19:36:47.216Z,19.35
2023-01-17T19:39:15.439Z,17.17
2023-01-17T19:41:45.506Z,18.30
2023-01-17T19:44:14.847Z,19.77
2023-01-17T19:46:42.286Z,18.63
2023-01-17T19:49:10.005Z,19.60
2023-01-17T19:51:39.348Z,19.55
2023-01-17T19:54:07.857Z,18.40
2023-01-17T19:56:35.141Z,24.55
2023-01-17T19:59:02.510Z,21.65
2023-01-17T20:01:33.191Z,20.33
2023-01-17T20:04:02.896Z,25.75
2023-01-17T20:06:35.906Z,22.55
2023-01-17T20:09:05.967Z,31.85
2023-01-17T20:11:33.025Z,23.52
2023-01-17T20:14:00.640Z,28.13
2023-01-17T20:16:31.755Z,26.27
2023-01-17T20:19:02.327Z,26.17
2023-01-17T20:21:31.987Z,25.15
2023-01-17T20:24:03.247Z,25.67
2023-01-17T20:26:35.028Z,28.33
2023-01-17T20:29:11.710Z,23.00
2023-01-17T20:31:42.134Z,26.67
2023-01-17T20:34:12.721Z,26.23
2023-01-17T20:36:44.485Z,29.75
2023-01-17T20:39:14.813Z,23.70
2023-01-17T20:41:44.814Z,35.75
2023-01-17T20:44:15.545Z,24.27
2023-01-17T20:46:43.770Z,24.52
2023-01-17T20:49:15.039Z,24.73
2023-01-17T20:51:44.742Z,23.15
2023-01-17T20:54:18.756Z,22.25
2023-01-17T20:56:47.770Z,21.58
2023-01-17T20:59:23.829Z,25.33
2023-01-17T21:01:51.898Z,39.10
2023-01-17T21:04:25.511Z,40.95
2023-01-17T21:06:53.369Z,48.87
2023-01-17T21:09:21.381Z,46.20
2023-01-17T21:11:50.489Z,50.30
2023-01-17T21:14:18.065Z,46.00
2023-01-17T21:16:45.097Z,39.90
2023-01-17T21:19:14.951Z,38.58
2023-01-17T21:21:41.992Z,29.38
2023-01-17T21:24:09.439Z,30.30
2023-01-17T21:26:38.845Z,31.15
2023-01-17T21:29:05.869Z,28.02
2023-01-17T21:31:35.111Z,25.58
2023-01-17T21:34:08.074Z,30.55
2023-01-17T21:36:39.255Z,28.02
2023-01-17T21:39:13.045Z,26.20
2023-01-17T21:41:41.868Z,43.78
2023-01-17T21:44:15.751Z,28.52
2023-01-17T21:46:42.772Z,29.33
2023-01-17T21:49:11.846Z,28.83
2023-01-17T21:51:53.319Z,30.00
2023-01-17T21:54:45.532Z,27.15
2023-01-17T21:57:35.075Z,24.00
2023-01-17T22:00:07.378Z,26.75
2023-01-17T22:02:47.804Z,27.25
2023-01-17T22:05:16.854Z,29.63
2023-01-17T22:08:04.973Z,30.27
2023-01-17T22:10:32.552Z,23.60
2023-01-17T22:12:59.625Z,22.17
2023-01-17T22:15:26.640Z,33.90
2023-01-17T22:17:54.043Z,29.05
2023-01-17T22:20:21.403Z,40.47
2023-01-17T22:22:48.473Z,49.80
2023-01-17T22:25:15.666Z,37.50
2023-01-17T22:27:42.640Z,45.58
2023-01-17T22:30:13.003Z,35.58
2023-01-17T22:32:40.470Z,27.60
2023-01-17T22:35:09.453Z,25.67
2023-01-17T22:37:36.563Z,23.02
2023-01-17T22:40:05.095Z,27.80
2023-01-17T22:42:34.905Z,20.23
2023-01-17T22:45:02.090Z,21.08
2023-01-17T22:47:29.263Z,22.35
2023-01-17T22:49:56.692Z,23.75
2023-01-17T22:52:23.804Z,22.60
2023-01-17T22:54:51.175Z,26.27
2023-01-17T22:57:18.594Z,22.00
2023-01-17T22:59:45.587Z,20.80
2023-01-17T23:02:12.820Z,22.55
2023-01-17T23:04:40.486Z,24.55
2023-01-17T23:07:07.579Z,28.58
2023-01-17T23:09:34.612Z,24.55
2023-01-17T23:12:01.683Z,24.40
2023-01-17T23:14:54.474Z,23.25
2023-01-17T23:17:42.866Z,23.00
2023-01-17T23:20:11.372Z,21.70
2023-01-17T23:22:38.413Z,23.15
2023-01-17T23:25:13.092Z,26.40
2023-01-17T23:28:05.490Z,21.97
2023-01-17T23:30:38.055Z,26.67
2023-01-17T23:33:12.075Z,24.00
2023-01-17T23:35:42.589Z,24.83
2023-01-17T23:38:26.518Z,19.88
2023-01-17T23:41:24.864Z,24.23
2023-01-17T23:43:54.299Z,22.13
2023-01-17T23:46:22.833Z,25.08
2023-01-17T23:48:50.032Z,24.73
2023-01-17T23:51:17.446Z,23.95
2023-01-17T23:53:44.468Z,23.08
2023-01-17T23:56:20.747Z,23.58
2023-01-17T23:58:48.084Z,23.98
